Time;durP1;ratioP1;P1;durP2;ratioP2;P2;SDS_P1;SDS_P2;PMS_P1;PMS_P2;Temp;Humidity;BMP_temperature;BMP_pressure;BME280_temperature;BME280_humidity;BME280_pressure;Samples;Min_cycle;Max_cycle;Signal;HPM_P1;HPM_P2
2022/04/04 00:00:10;;;;;;;10.20;6.68;;;;;;;5.31;71.04;101927.03;5067658;28;20103;-64
2022/04/04 00:02:35;;;;;;;10.98;6.90;;;;;;;5.30;71.10;101925.25;5068016;28;20040;-62
2022/04/04 00:05:01;;;;;;;9.60;6.82;;;;;;;5.34;71.12;101912.22;5067569;28;20009;-63
2022/04/04 00:07:27;;;;;;;14.38;6.90;;;;;;;5.29;71.27;101904.34;5065834;28;20108;-63
2022/04/04 00:09:52;;;;;;;12.77;6.57;;;;;;;5.25;71.63;101908.69;5066500;28;20471;-62
2022/04/04 00:12:17;;;;;;;10.57;6.63;;;;;;;5.32;71.51;101904.34;5066268;28;20131;-63
2022/04/04 00:14:43;;;;;;;10.32;7.30;;;;;;;5.26;71.81;101893.88;5066862;28;20360;-63
2022/04/04 00:17:08;;;;;;;11.65;7.70;;;;;;;5.27;71.97;101880.81;5067151;28;20126;-65
2022/04/04 00:19:34;;;;;;;9.55;7.22;;;;;;;5.33;71.86;101882.59;5066915;28;20118;-63
2022/04/04 00:21:59;;;;;;;12.45;7.00;;;;;;;5.30;72.49;101879.97;5066508;28;20317;-63
2022/04/04 00:24:25;;;;;;;10.73;7.55;;;;;;;5.26;72.37;101873.84;5066440;28;20394;-63
2022/04/04 00:26:50;;;;;;;8.60;6.53;;;;;;;5.32;72.55;101878.22;5066187;28;20100;-62
2022/04/04 00:29:16;;;;;;;9.38;6.68;;;;;;;5.39;72.05;101868.69;5066020;28;20487;-63
2022/04/04 00:31:41;;;;;;;14.73;6.45;;;;;;;5.36;72.66;101868.66;5067377;28;20122;-63
2022/04/04 00:34:06;;;;;;;10.90;6.20;;;;;;;5.38;72.51;101864.31;5064559;28;20036;-64
2022/04/04 00:36:32;;;;;;;12.88;6.53;;;;;;;5.29;72.87;101860.78;5065924;28;20020;-63
2022/04/04 00:38:57;;;;;;;8.18;5.97;;;;;;;5.34;72.77;101852.09;5065325;28;20563;-64
2022/04/04 00:41:22;;;;;;;8.93;5.72;;;;;;;5.34;73.12;101855.59;5066857;28;20025;-63
2022/04/04 00:43:52;;;;;;;12.63;5.40;;;;;;;5.29;73.32;101852.94;5066305;28;20020;-64
2022/04/04 00:46:17;;;;;;;8.27;5.10;;;;;;;5.18;74.30;101857.25;5066985;28;20487;-62
2022/04/04 00:48:43;;;;;;;14.15;5.30;;;;;;;5.34;73.81;101852.09;5065826;28;20102;-63
2022/04/04 00:51:08;;;;;;;12.63;5.57;;;;;;;5.40;73.33;101837.31;5066635;28;20046;-63
2022/04/04 00:53:34;;;;;;;11.73;5.22;;;;;;;5.41;73.60;101832.94;5065301;28;20036;-63
2022/04/04 00:56:00;;;;;;;7.38;5.13;;;;;;;5.45;73.62;101826.88;5067404;28;20036;-63
2022/04/04 00:58:26;;;;;;;9.25;4.60;;;;;;;5.59;73.18;101818.19;5065876;28;20279;-63
2022/04/04 01:00:52;;;;;;;9.65;4.32;;;;;;;5.60;73.60;101819.94;5048503;28;20032;-62
2022/04/04 01:03:17;;;;;;;11.82;4.80;;;;;;;5.65;73.35;101823.44;5082687;22;20410;-63
2022/04/04 01:05:44;;;;;;;10.43;4.78;;;;;;;5.73;73.13;101805.16;5027468;28;20017;-66
2022/04/04 01:08:13;;;;;;;14.40;5.35;;;;;;;5.71;73.48;101799.03;5025531;28;20048;-62
2022/04/04 01:10:40;;;;;;;9.63;4.88;;;;;;;5.82;73.25;101798.19;5027041;28;20033;-63
2022/04/04 01:13:05;;;;;;;8.02;4.32;;;;;;;5.92;73.05;101786.00;5026338;28;20492;-63
2022/04/04 01:15:32;;;;;;;11.65;4.32;;;;;;;5.87;73.43;101792.13;5026794;28;20025;-61
2022/04/04 01:17:58;;;;;;;12.10;4.60;;;;;;;5.92;73.37;101792.97;5025899;28;20033;-65
2022/04/04 01:20:24;;;;;;;9.35;4.88;;;;;;;6.02;73.08;101784.25;5026788;28;20100;-62
2022/04/04 01:22:49;;;;;;;13.40;4.60;;;;;;;6.18;72.49;101779.06;5027551;28;20144;-62
2022/04/04 01:25:16;;;;;;;10.07;4.70;;;;;;;6.16;72.59;101773.84;5046759;28;20127;-63
2022/04/04 01:27:45;;;;;;;11.13;5.10;;;;;;;6.11;72.78;101769.47;5045810;28;20021;-60
2022/04/04 01:30:11;;;;;;;7.57;4.40;;;;;;;6.22;72.38;101758.97;5046615;28;20021;-64
2022/04/04 01:32:36;;;;;;;11.02;4.95;;;;;;;6.37;71.78;101750.25;5044424;28;20037;-64
2022/04/04 01:35:02;;;;;;;18.25;5.30;;;;;;;6.26;71.75;101751.13;5027124;28;20426;-61
2022/04/04 01:37:28;;;;;;;11.40;4.88;;;;;;;6.25;71.98;101738.03;5024838;28;20048;-60
2022/04/04 01:39:53;;;;;;;9.13;5.20;;;;;;;6.35;71.40;101731.06;5026456;28;20030;-58
2022/04/04 01:42:18;;;;;;;14.02;5.50;;;;;;;6.31;71.50;101732.81;5026112;28;20098;-61
2022/04/04 01:44:44;;;;;;;8.52;5.00;;;;;;;6.31;71.33;101724.97;5024428;28;20018;-61
2022/04/04 01:47:10;;;;;;;13.95;5.22;;;;;;;6.35;70.94;101731.06;5025411;28;20041;-61
2022/04/04 01:49:35;;;;;;;11.07;4.95;;;;;;;6.21;71.65;101711.03;5026178;28;20091;-59
2022/04/04 01:52:00;;;;;;;8.27;5.35;;;;;;;6.36;71.13;101711.88;5025691;28;20065;-61
2022/04/04 01:54:26;;;;;;;14.90;5.63;;;;;;;6.36;70.93;101709.25;5024568;28;20794;-59
2022/04/04 01:56:51;;;;;;;17.33;5.53;;;;;;;6.35;70.87;101703.13;5022945;28;20136;-61
2022/04/04 01:59:16;;;;;;;9.80;5.30;;;;;;;6.36;71.06;101701.38;5024426;28;20055;-60
2022/04/04 02:01:42;;;;;;;10.20;6.30;;;;;;;6.16;71.25;101694.44;5025994;28;20029;-61
2022/04/04 02:04:09;;;;;;;15.85;6.40;;;;;;;6.21;71.07;101673.50;5024319;28;20046;-60
2022/04/04 02:06:35;;;;;;;11.70;6.22;;;;;;;6.27;70.75;101684.84;5024290;28;20418;-59
2022/04/04 02:09:00;;;;;;;14.07;5.60;;;;;;;6.43;69.97;101683.06;5024765;28;20120;-59
2022/04/04 02:11:25;;;;;;;13.95;5.57;;;;;;;6.34;70.23;101682.19;5024864;28;20116;-60
2022/04/04 02:13:51;;;;;;;13.82;6.00;;;;;;;6.42;70.02;101667.34;5025211;28;20116;-61
2022/04/04 02:16:16;;;;;;;11.30;5.50;;;;;;;6.36;69.95;101672.59;5025104;28;20032;-59
2022/04/04 02:18:41;;;;;;;13.43;6.18;;;;;;;6.35;69.68;101657.78;5025115;28;20030;-59
2022/04/04 02:21:07;;;;;;;8.80;5.65;;;;;;;6.39;69.61;101665.63;5024219;28;20021;-62
2022/04/04 02:23:33;;;;;;;10.13;6.38;;;;;;;6.45;69.21;101642.00;5024510;28;20033;-59
2022/04/04 02:25:59;;;;;;;15.80;5.68;;;;;;;6.51;68.84;101658.59;5025005;28;20030;-60
2022/04/04 02:28:28;;;;;;;13.05;5.65;;;;;;;6.57;68.74;101633.22;5024528;28;20087;-60
2022/04/04 02:30:53;;;;;;;8.32;5.20;;;;;;;6.69;68.24;101641.94;5025260;28;20499;-61
2022/04/04 02:33:19;;;;;;;16.30;6.70;;;;;;;6.65;68.51;101629.72;5022280;28;20699;-59
2022/04/04 02:35:46;;;;;;;18.50;6.30;;;;;;;6.73;68.12;101619.19;5025459;28;20033;-59
2022/04/04 02:38:12;;;;;;;10.75;5.50;;;;;;;6.62;68.63;101619.28;5021744;28;20057;-59
2022/04/04 02:40:38;;;;;;;15.32;5.90;;;;;;;6.61;68.75;101613.16;5025355;28;20133;-61
2022/04/04 02:43:05;;;;;;;18.73;6.50;;;;;;;6.55;69.02;101618.41;5024547;28;20076;-60
2022/04/04 02:45:31;;;;;;;12.13;5.95;;;;;;;6.65;68.65;101600.94;5024165;28;20047;-59
2022/04/04 02:47:56;;;;;;;11.77;5.88;;;;;;;6.67;68.19;101586.06;5023823;28;20021;-61
2022/04/04 02:50:22;;;;;;;12.38;6.70;;;;;;;6.74;68.19;101590.38;5023568;28;20025;-60
2022/04/04 02:52:47;;;;;;;11.73;6.15;;;;;;;6.66;68.05;101581.69;5024458;28;20025;-62
2022/04/04 02:57:56;;;;;;;11.68;6.13;;;;;;;6.83;67.46;101563.25;5024503;28;20703;-61
2022/04/04 03:00:24;;;;;;;10.10;6.25;;;;;;;6.73;67.48;101565.06;5023746;28;20029;-59
2022/04/04 03:02:51;;;;;;;9.45;5.70;;;;;;;6.67;67.35;101560.75;5021895;28;20054;-59
2022/04/04 03:05:16;;;;;;;12.65;6.03;;;;;;;6.79;67.32;101551.94;5024236;28;20065;-60
2022/04/04 03:07:42;;;;;;;12.30;6.32;;;;;;;6.86;67.23;101544.91;5023365;28;20087;-60
2022/04/04 03:10:09;;;;;;;11.95;6.63;;;;;;;6.88;67.34;101531.78;5024784;28;20107;-60
2022/04/04 03:12:42;;;;;;;12.98;5.75;;;;;;;6.82;67.60;101525.72;5024028;28;20499;-61
2022/04/04 03:15:11;;;;;;;14.85;5.63;;;;;;;6.79;67.72;101528.38;5024047;28;20091;-61
2022/04/04 03:17:39;;;;;;;12.57;6.07;;;;;;;6.94;67.46;101535.25;5004539;28;20057;-63
2022/04/04 03:20:09;;;;;;;14.43;5.72;;;;;;;6.97;67.65;101521.25;5004821;28;20310;-60
2022/04/04 03:22:37;;;;;;;11.05;6.45;;;;;;;6.87;68.22;101514.34;5004434;28;20109;-60
2022/04/04 03:25:03;;;;;;;11.50;6.25;;;;;;;6.86;68.31;101497.75;5005607;28;20022;-61
2022/04/04 03:27:28;;;;;;;15.13;6.80;;;;;;;6.90;68.32;101496.84;5022481;28;20029;-61
2022/04/04 03:29:53;;;;;;;7.70;6.10;;;;;;;6.93;68.39;101490.72;5023507;28;20148;-60
2022/04/04 03:32:18;;;;;;;13.23;5.88;;;;;;;6.89;68.47;101489.00;5024229;28;20030;-59
2022/04/04 03:34:44;;;;;;;16.35;6.88;;;;;;;6.80;68.98;101482.06;5025154;28;20049;-59
2022/04/04 03:37:11;;;;;;;12.82;6.68;;;;;;;6.75;68.98;101476.88;5021393;28;20491;-59
2022/04/04 03:39:36;;;;;;;16.10;7.35;;;;;;;6.81;68.64;101479.44;5024206;28;20133;-61
2022/04/04 03:42:01;;;;;;;12.40;6.10;;;;;;;6.87;68.34;101468.06;5024355;28;20029;-60
2022/04/04 03:44:27;;;;;;;10.05;6.25;;;;;;;6.92;68.23;101483.72;5023081;28;20033;-60
2022/04/04 03:46:52;;;;;;;11.73;6.40;;;;;;;6.79;68.38;101459.38;5023554;28;20441;-62
2022/04/04 03:49:17;;;;;;;15.10;6.35;;;;;;;6.76;68.89;101452.41;5023724;28;20140;-59
2022/04/04 03:51:43;;;;;;;13.70;7.47;;;;;;;6.80;68.44;101458.47;5022842;28;20033;-60
2022/04/04 03:54:08;;;;;;;12.40;6.53;;;;;;;6.83;68.34;101446.25;5023432;28;20091;-60
2022/04/04 03:56:33;;;;;;;13.45;6.63;;;;;;;6.94;68.27;101443.53;5023936;28;20444;-61
2022/04/04 03:58:59;;;;;;;13.32;6.20;;;;;;;6.91;67.84;101434.81;5023674;28;20036;-60
2022/04/04 04:01:27;;;;;;;14.63;6.55;;;;;;;6.87;68.15;101434.00;5026765;28;20022;-58
2022/04/04 04:03:52;;;;;;;16.83;6.72;;;;;;;6.97;67.92;101426.03;5026767;28;20108;-60
2022/04/04 04:06:18;;;;;;;14.10;6.63;;;;;;;7.02;67.67;101419.91;5025448;28;20029;-58
2022/04/04 04:08:45;;;;;;;14.45;6.60;;;;;;;6.91;68.15;101413.88;5028131;28;20021;-61
2022/04/04 04:11:13;;;;;;;11.05;5.72;;;;;;;6.93;67.77;101418.19;5026938;28;20032;-60
2022/04/04 04:13:43;;;;;;;16.55;6.55;;;;;;;6.90;67.88;101413.03;5027613;28;20069;-59
2022/04/04 04:16:09;;;;;;;13.35;6.30;;;;;;;7.04;67.40;101404.13;5026125;28;20033;-60
2022/04/04 04:18:38;;;;;;;14.13;6.38;;;;;;;7.04;67.39;101397.16;5027590;28;20024;-58
2022/04/04 04:21:04;;;;;;;12.63;6.30;;;;;;;7.06;66.90;101394.50;5027072;28;20025;-60
2022/04/04 04:23:29;;;;;;;14.13;5.88;;;;;;;6.94;67.08;101391.16;5024900;28;20021;-61
2022/04/04 04:25:54;;;;;;;14.00;6.40;;;;;;;6.98;67.11;101386.72;5026670;28;20570;-60
2022/04/04 04:28:20;;;;;;;13.32;5.53;;;;;;;7.04;66.85;101376.19;5026198;28;20017;-61
2022/04/04 04:30:45;;;;;;;16.08;5.43;;;;;;;6.94;67.05;101370.19;5026929;28;20403;-59
2022/04/04 04:33:11;;;;;;;15.60;5.85;;;;;;;6.95;67.01;101365.78;5026076;28;20337;-59
2022/04/04 04:35:36;;;;;;;14.38;5.95;;;;;;;6.87;67.39;101357.16;5026938;28;20076;-62
2022/04/04 04:38:02;;;;;;;16.23;6.43;;;;;;;7.04;66.56;101349.09;5027323;28;20139;-61
2022/04/04 04:40:28;;;;;;;8.55;5.18;;;;;;;6.99;66.46;101348.28;5026689;28;20030;-59
2022/04/04 04:42:54;;;;;;;14.88;5.47;;;;;;;6.93;66.67;101349.22;5027181;28;20040;-59
2022/04/04 04:45:20;;;;;;;11.43;5.68;;;;;;;6.93;66.63;101338.75;5026420;28;20419;-58
2022/04/04 04:47:46;;;;;;;12.98;5.60;;;;;;;7.07;66.23;101334.22;5026008;28;20109;-59
2022/04/04 04:50:13;;;;;;;17.67;5.97;;;;;;;6.99;66.11;101317.72;5026081;28;20072;-58
2022/04/04 04:52:40;;;;;;;8.45;4.97;;;;;;;7.11;65.93;101318.47;5024133;28;20029;-60
2022/04/04 04:55:05;;;;;;;16.25;5.88;;;;;;;7.11;65.93;101310.59;5026549;28;20087;-61
2022/04/04 04:57:31;;;;;;;9.55;5.75;;;;;;;7.00;65.69;101319.47;5026728;28;20131;-60
2022/04/04 04:59:57;;;;;;;11.88;5.30;;;;;;;7.13;65.32;101295.75;5025411;28;20111;-60
2022/04/04 05:02:22;;;;;;;17.42;6.15;;;;;;;7.08;65.39;101299.25;5025201;28;20468;-60
2022/04/04 05:04:48;;;;;;;12.82;5.32;;;;;;;7.06;65.48;101300.16;5026178;28;20057;-61
2022/04/04 05:07:13;;;;;;;14.82;5.57;;;;;;;7.05;65.46;101280.94;5025337;28;20084;-60
2022/04/04 05:09:39;;;;;;;21.75;5.72;;;;;;;7.18;65.18;101278.19;5026037;28;20032;-61
2022/04/04 05:12:05;;;;;;;13.98;5.90;;;;;;;7.13;65.28;101257.28;5026042;28;20029;-60
2022/04/04 05:14:30;;;;;;;10.07;5.38;;;;;;;7.16;65.36;101266.84;5026253;28;20072;-61
2022/04/04 05:16:55;;;;;;;18.27;5.85;;;;;;;7.07;65.26;101247.75;5026464;28;20231;-60
2022/04/04 05:19:22;;;;;;;9.27;6.63;;;;;;;7.00;65.47;101243.47;5024859;28;20598;-61
2022/04/04 05:21:48;;;;;;;13.63;6.10;;;;;;;7.16;65.13;101253.75;5023884;28;20041;-61
2022/04/04 05:24:14;;;;;;;13.23;6.40;;;;;;;7.13;65.36;101248.56;5024312;28;20033;-60
2022/04/04 05:26:39;;;;;;;13.23;6.15;;;;;;;7.07;65.67;101242.50;5025867;28;20022;-62
2022/04/04 05:29:05;;;;;;;14.45;6.60;;;;;;;7.06;65.56;101234.66;5020999;28;20038;-61
2022/04/04 05:31:31;;;;;;;13.70;7.00;;;;;;;7.10;65.28;101222.41;5015954;28;20014;-60
2022/04/04 05:34:01;;;;;;;12.95;6.78;;;;;;;7.10;65.43;101235.50;5014311;28;20034;-58
2022/04/04 05:36:28;;;;;;;13.20;6.40;;;;;;;7.13;65.26;101224.97;5014554;28;20029;-59
2022/04/04 05:38:53;;;;;;;16.15;6.63;;;;;;;7.26;65.06;101221.31;5016462;28;20056;-59
2022/04/04 05:41:19;;;;;;;15.73;6.80;;;;;;;7.16;65.00;101217.06;5015165;28;20448;-61
2022/04/04 05:43:46;;;;;;;13.27;7.30;;;;;;;7.34;64.90;101213.31;5018098;28;20108;-59
2022/04/04 05:46:12;;;;;;;16.17;8.25;;;;;;;7.19;65.53;101203.91;5025503;28;20040;-62
2022/04/04 05:48:38;;;;;;;11.60;7.63;;;;;;;7.14;65.87;101197.88;5024997;28;20030;-58
2022/04/04 05:51:03;;;;;;;16.02;7.20;;;;;;;7.26;65.80;101197.72;5022769;28;20025;-60
2022/04/04 05:53:29;;;;;;;12.73;6.72;;;;;;;7.36;65.83;101213.28;5021439;28;20030;-61
2022/04/04 05:55:54;;;;;;;14.05;7.30;;;;;;;7.32;66.46;101205.47;5024699;28;20103;-60
2022/04/04 05:58:19;;;;;;;10.32;7.38;;;;;;;7.19;67.34;101190.81;5025630;28;20484;-62
2022/04/04 06:00:45;;;;;;;14.43;7.70;;;;;;;7.22;67.51;101190.75;5025375;28;20185;-63
2022/04/04 06:03:10;;;;;;;13.30;6.93;;;;;;;7.04;68.00;101200.63;5024959;28;20574;-62
2022/04/04 06:05:35;;;;;;;16.15;8.98;;;;;;;7.06;68.39;101182.25;5024322;28;20057;-62
2022/04/04 06:08:01;;;;;;;13.45;7.10;;;;;;;6.97;69.30;101203.34;5023105;28;20018;-60
2022/04/04 06:10:27;;;;;;;18.60;8.27;;;;;;;6.86;70.03;101206.09;5023953;28;20036;-62
2022/04/04 06:12:52;;;;;;;15.52;7.68;;;;;;;7.02;70.19;101186.69;5024474;28;20128;-61
2022/04/04 06:15:17;;;;;;;16.45;7.55;;;;;;;6.95;70.91;101195.50;5024759;28;20076;-66
2022/04/04 06:17:44;;;;;;;15.55;8.35;;;;;;;6.74;72.31;101189.63;5020949;28;20488;-69
2022/04/04 06:20:10;;;;;;;12.98;7.28;;;;;;;6.65;72.58;101195.84;5006993;28;20108;-67
2022/04/04 06:22:36;;;;;;;14.05;7.88;;;;;;;6.57;73.08;101167.13;5004856;28;20113;-64
2022/04/04 06:25:04;;;;;;;14.15;8.65;;;;;;;6.57;73.75;101171.53;5020760;28;20029;-64
2022/04/04 06:27:30;;;;;;;13.88;8.75;;;;;;;6.49;74.43;101160.25;5024732;28;20088;-64
2022/04/04 06:29:56;;;;;;;21.25;9.00;;;;;;;6.63;74.12;101160.09;5024531;28;20483;-63
2022/04/04 06:32:22;;;;;;;16.42;8.15;;;;;;;6.61;73.91;101160.13;5024159;28;20322;-64
2022/04/04 06:34:47;;;;;;;15.85;8.65;;;;;;;6.61;74.08;101167.09;5024215;28;20056;-65
2022/04/04 06:37:13;;;;;;;12.48;7.20;;;;;;;6.49;74.61;101129.72;5023326;28;20028;-63
2022/04/04 06:39:38;;;;;;;14.35;7.57;;;;;;;6.44;75.11;101149.84;5023700;28;20030;-64
2022/04/04 06:42:03;;;;;;;18.38;7.97;;;;;;;6.54;74.77;101148.84;5025024;28;20029;-64
2022/04/04 06:44:29;;;;;;;11.75;6.80;;;;;;;6.65;74.66;101143.47;5012695;28;20033;-64
2022/04/04 06:46:56;;;;;;;12.57;7.13;;;;;;;6.37;74.97;101128.13;5014770;28;20013;-62
2022/04/04 06:49:22;;;;;;;21.77;7.20;;;;;;;6.59;74.36;101117.38;5016507;28;20029;-63
2022/04/04 06:51:48;;;;;;;16.83;7.15;;;;;;;6.56;74.15;101123.53;5024670;28;20029;-63
2022/04/04 06:54:13;;;;;;;15.70;6.88;;;;;;;6.67;74.66;101115.53;5024094;28;20475;-62
2022/04/04 06:56:38;;;;;;;15.90;7.00;;;;;;;6.90;74.14;101116.97;5024205;28;20124;-63
2022/04/04 06:59:04;;;;;;;10.75;5.72;;;;;;;6.85;73.71;101107.44;5024780;28;20021;-60
2022/04/04 07:01:31;;;;;;;13.18;6.38;;;;;;;6.91;73.29;101118.72;5021793;28;20022;-63
2022/04/04 07:03:57;;;;;;;14.20;4.97;;;;;;;6.83;73.41;101100.47;5023124;28;20593;-63
2022/04/04 07:06:23;;;;;;;9.55;5.07;;;;;;;6.88;72.16;101096.91;5020477;28;20053;-64
2022/04/04 07:08:48;;;;;;;10.38;4.90;;;;;;;6.85;71.81;101091.72;5023217;28;20068;-67
2022/04/04 07:11:14;;;;;;;9.38;4.10;;;;;;;6.87;71.84;101100.44;5023257;28;20396;-61
2022/04/04 07:13:44;;;;;;;14.60;4.60;;;;;;;7.02;71.65;101113.31;5023973;28;20033;-65
2022/04/04 07:16:09;;;;;;;12.30;5.05;;;;;;;6.92;72.01;101098.59;5023471;28;20113;-62
2022/04/04 07:18:35;;;;;;;10.82;4.28;;;;;;;6.94;72.40;101102.94;5020575;28;20711;-62
2022/04/04 07:21:00;;;;;;;12.65;4.40;;;;;;;6.60;73.13;101095.56;5019958;28;20025;-65
2022/04/04 07:23:25;;;;;;;17.00;5.05;;;;;;;6.57;73.87;101088.59;5015546;28;20030;-62
2022/04/04 07:25:51;;;;;;;12.73;3.65;;;;;;;6.47;74.71;101100.06;5014620;28;20033;-62
2022/04/04 07:28:16;;;;;;;22.25;4.60;;;;;;;6.44;76.12;101115.81;5015132;28;20064;-62
2022/04/04 07:30:43;;;;;;;8.80;3.95;;;;;;;6.24;76.67;101075.06;5013204;28;20022;-61
2022/04/04 07:33:09;;;;;;;11.73;4.32;;;;;;;6.20;77.15;101081.19;5013690;28;20025;-64
2022/04/04 07:35:34;;;;;;;10.27;4.47;;;;;;;6.23;77.88;101073.31;5019411;28;20026;-62
2022/04/04 07:37:59;;;;;;;12.70;4.85;;;;;;;6.29;78.18;101078.47;5020945;28;20064;-67
2022/04/04 07:40:26;;;;;;;10.00;4.53;;;;;;;6.11;78.11;101068.25;5016816;28;20025;-61
2022/04/04 07:42:52;;;;;;;16.73;6.03;;;;;;;6.11;78.53;101081.31;5026261;28;20025;-62
2022/04/04 07:45:17;;;;;;;8.00;4.47;;;;;;;6.12;78.35;101122.28;5027061;28;20416;-63
2022/04/04 07:47:43;;;;;;;13.68;4.78;;;;;;;6.20;78.42;101047.16;5027735;28;20486;-63
2022/04/04 07:50:11;;;;;;;9.32;4.65;;;;;;;6.13;78.64;101061.22;5026989;28;20051;-64
2022/04/04 07:52:36;;;;;;;8.20;4.20;;;;;;;6.16;78.51;101040.25;5028060;28;20102;-63
2022/04/04 07:55:02;;;;;;;13.10;4.53;;;;;;;6.13;78.97;101042.91;5027793;28;20492;-65
2022/04/04 07:57:28;;;;;;;8.27;4.28;;;;;;;6.13;79.23;101035.06;4995704;28;20034;-63
2022/04/04 07:59:53;;;;;;;10.43;4.35;;;;;;;6.12;78.98;101028.09;5027632;28;20183;-62
2022/04/04 08:02:19;;;;;;;13.68;5.50;;;;;;;6.11;79.27;101026.38;5027085;28;20028;-63
2022/04/04 08:04:44;;;;;;;8.32;4.15;;;;;;;6.19;79.37;101038.47;5027954;28;20104;-63
2022/04/04 08:07:09;;;;;;;8.23;4.95;;;;;;;6.17;79.49;101016.69;5024305;28;20038;-62
2022/04/04 08:09:35;;;;;;;8.68;4.45;;;;;;;6.13;79.88;101011.50;5027461;28;20064;-59
2022/04/04 08:12:00;;;;;;;6.90;4.45;;;;;;;6.01;80.34;101007.25;5026616;28;20102;-60
2022/04/04 08:14:26;;;;;;;11.48;4.78;;;;;;;6.14;80.26;101010.66;5024720;28;20529;-63
2022/04/04 08:16:51;;;;;;;14.93;5.00;;;;;;;6.07;80.18;101005.47;5024437;28;20476;-62
2022/04/04 08:19:17;;;;;;;7.30;4.53;;;;;;;6.07;80.63;101004.59;5018908;28;20022;-64
2022/04/04 08:21:44;;;;;;;12.05;4.70;;;;;;;6.14;80.44;100989.72;5025837;28;20076;-62
2022/04/04 08:24:13;;;;;;;11.95;4.75;;;;;;;6.20;80.49;101005.31;5026847;28;20083;-63
2022/04/04 08:26:39;;;;;;;14.13;4.90;;;;;;;6.12;80.10;100981.88;5027003;28;20036;-63
2022/04/04 08:29:05;;;;;;;11.60;5.40;;;;;;;6.25;80.42;100977.34;5026750;28;20308;-65
2022/04/04 08:31:30;;;;;;;12.60;4.78;;;;;;;6.18;80.25;101017.56;5025479;28;20029;-63
2022/04/04 08:33:56;;;;;;;11.50;5.30;;;;;;;6.28;79.91;100987.78;5023445;28;20195;-63
2022/04/04 08:36:21;;;;;;;11.10;5.28;;;;;;;6.36;79.72;100990.28;5015405;28;20029;-64
2022/04/04 08:38:46;;;;;;;10.27;5.53;;;;;;;6.29;80.29;100989.50;5025794;28;20047;-63
2022/04/04 08:41:12;;;;;;;13.07;4.70;;;;;;;6.38;80.12;100983.25;5027214;28;20025;-61
2022/04/04 08:43:40;;;;;;;16.98;5.38;;;;;;;6.48;79.70;100973.53;5024837;28;20337;-63
2022/04/04 08:46:06;;;;;;;14.20;4.57;;;;;;;6.63;79.49;100968.97;5026365;28;20040;-65
2022/04/04 08:48:34;;;;;;;9.65;4.40;;;;;;;6.54;79.70;100977.81;5027176;28;20029;-64
2022/04/04 08:50:59;;;;;;;8.98;4.57;;;;;;;6.49;79.97;100980.50;5025926;28;20057;-61
2022/04/04 08:53:24;;;;;;;12.38;4.60;;;;;;;6.53;80.17;100965.63;5026406;28;20060;-64
2022/04/04 08:55:50;;;;;;;13.68;4.57;;;;;;;6.39;80.53;100968.44;5026112;28;20029;-64
2022/04/04 08:58:15;;;;;;;18.90;4.70;;;;;;;6.48;80.69;100936.91;5026381;28;20567;-65
2022/04/04 09:00:41;;;;;;;10.48;4.47;;;;;;;6.41;80.94;100941.34;5025820;28;20083;-69
2022/04/04 09:03:09;;;;;;;14.68;4.75;;;;;;;6.56;80.86;100941.97;5026568;28;20038;-71
2022/04/04 09:05:49;;;;;;;13.50;4.63;;;;;;;6.68;81.15;100964.50;5024235;28;20146;-66
2022/04/04 09:08:14;;;;;;;14.70;4.25;;;;;;;6.60;81.47;100946.31;5025042;28;20403;-63
2022/04/04 09:10:41;;;;;;;15.10;4.60;;;;;;;6.53;82.24;100944.69;5016221;28;20225;-61
2022/04/04 09:13:07;;;;;;;11.82;4.70;;;;;;;6.55;82.37;100946.38;5015671;28;20045;-64
2022/04/04 09:15:53;;;;;;;13.88;4.10;;;;;;;6.42;82.83;100950.06;5018244;28;20538;-67
2022/04/04 09:18:25;;;;;;;11.32;3.65;;;;;;;6.48;82.82;100926.41;5023840;28;20622;-63
2022/04/04 09:20:51;;;;;;;9.75;3.90;;;;;;;6.73;82.41;100935.63;5024346;28;20060;-65
2022/04/04 09:23:17;;;;;;;8.88;3.65;;;;;;;6.64;82.92;100915.69;5024159;28;20025;-65
2022/04/04 09:25:42;;;;;;;5.20;3.40;;;;;;;6.76;82.47;100930.34;5025466;28;20026;-66
2022/04/04 09:28:15;;;;;;;12.73;4.60;;;;;;;6.97;81.69;100897.69;5024513;28;20081;-67
2022/04/04 09:30:41;;;;;;;13.88;3.70;;;;;;;6.66;82.42;100924.41;5026248;28;20045;-61
2022/04/04 09:33:06;;;;;;;8.45;2.90;;;;;;;6.73;82.40;100918.16;5025424;28;20391;-57
2022/04/04 09:35:44;;;;;;;7.05;2.92;;;;;;;6.77;82.50;100898.88;5025541;28;20013;-59
2022/04/04 09:38:16;;;;;;;14.20;3.45;;;;;;;6.90;82.29;100901.31;5025032;28;20025;-58
2022/04/04 09:40:42;;;;;;;13.85;3.08;;;;;;;6.99;82.15;100932.59;5023993;28;20365;-58
2022/04/04 09:43:07;;;;;;;6.03;3.10;;;;;;;6.86;82.10;100900.47;5023050;28;20051;-59
2022/04/04 09:45:33;;;;;;;8.90;2.97;;;;;;;6.91;82.43;100895.16;5024843;28;20028;-57
2022/04/04 09:48:02;;;;;;;11.68;3.58;;;;;;;7.08;81.85;100869.50;5025202;28;20064;-56
2022/04/04 09:50:45;;;;;;;9.23;3.15;;;;;;;7.17;82.00;100899.91;5022612;28;20033;-59
2022/04/04 09:53:19;;;;;;;11.68;2.78;;;;;;;6.98;82.12;100883.69;5025664;28;20096;-52
2022/04/04 09:55:55;;;;;;;11.57;3.38;;;;;;;6.96;82.54;100893.34;5024589;28;20433;-59
2022/04/04 09:58:22;;;;;;;7.78;2.80;;;;;;;7.01;82.44;100888.03;5016465;28;20448;-55
2022/04/04 10:00:49;;;;;;;14.27;2.90;;;;;;;7.03;82.93;100874.00;5014780;28;20013;-57
2022/04/04 10:03:16;;;;;;;9.35;3.38;;;;;;;6.91;83.45;100882.94;5022305;28;20056;-56
2022/04/04 10:05:47;;;;;;;8.20;3.13;;;;;;;7.04;83.33;100880.06;5024294;28;20043;-56
2022/04/04 10:08:17;;;;;;;12.82;3.30;;;;;;;7.13;83.03;100892.16;5024285;28;20041;-57
2022/04/04 10:10:43;;;;;;;10.32;2.92;;;;;;;7.17;83.00;100873.72;5020568;28;20017;-62
2022/04/04 10:13:10;;;;;;;9.63;2.75;;;;;;;7.11;83.50;100870.34;5024748;28;20048;-59
2022/04/04 10:15:38;;;;;;;8.98;2.72;;;;;;;7.13;83.47;100853.72;5025389;28;20018;-60
2022/04/04 10:18:04;;;;;;;14.13;3.60;;;;;;;7.19;83.63;100850.09;5022826;28;20484;-63
2022/04/04 10:20:30;;;;;;;13.18;3.00;;;;;;;7.28;83.12;100857.78;5024347;28;20388;-64
2022/04/04 10:22:56;;;;;;;9.52;2.70;;;;;;;7.37;83.18;100869.00;5024902;28;20282;-63
2022/04/04 10:25:24;;;;;;;10.02;2.75;;;;;;;7.30;83.44;100861.25;5024272;28;20028;-63
2022/04/04 10:27:51;;;;;;;8.80;2.45;;;;;;;7.21;84.01;100864.03;5025508;28;20025;-62
2022/04/04 10:30:16;;;;;;;10.55;2.70;;;;;;;7.23;83.91;100833.44;5022265;28;20052;-59
2022/04/04 10:32:50;;;;;;;7.53;2.90;;;;;;;7.37;83.80;100837.53;5015200;28;20034;-59
2022/04/04 10:35:22;;;;;;;9.65;2.80;;;;;;;7.38;83.94;100839.25;5021844;28;20041;-61
2022/04/04 10:37:48;;;;;;;12.45;2.97;;;;;;;7.42;83.61;100831.31;5022980;28;20039;-56
2022/04/04 10:40:25;;;;;;;8.45;2.90;;;;;;;7.49;83.68;100826.78;5014393;28;20371;-57
2022/04/04 10:43:07;;;;;;;7.90;2.55;;;;;;;7.52;83.93;100837.22;5019534;28;20108;-61
2022/04/04 10:45:58;;;;;;;10.43;2.28;;;;;;;7.37;84.42;100821.81;5022662;28;20075;-60
2022/04/04 10:48:32;;;;;;;7.78;2.67;;;;;;;7.51;84.45;100843.34;5015916;28;20021;-57
2022/04/04 10:51:11;;;;;;;11.98;2.33;;;;;;;7.59;84.81;100820.44;5021390;28;20132;-55
2022/04/04 10:53:40;;;;;;;8.95;2.33;;;;;;;7.80;84.19;100825.25;5022678;28;20121;-60
2022/04/04 10:56:06;;;;;;;8.98;2.53;;;;;;;7.75;84.16;100822.72;5019783;28;20029;-55
2022/04/04 10:58:31;;;;;;;8.57;2.25;;;;;;;7.66;84.36;100815.06;5021123;28;20120;-56
2022/04/04 11:01:09;;;;;;;8.85;2.33;;;;;;;7.82;84.62;100813.81;5023042;28;20017;-59
2022/04/04 11:03:41;;;;;;;9.05;2.80;;;;;;;7.79;84.62;100807.78;5020907;28;20034;-59
2022/04/04 11:09:18;;;;;;;11.25;2.08;;;;;;;7.96;84.45;100810.03;5022526;28;20091;-58
2022/04/04 11:11:58;;;;;;;13.00;2.20;;;;;;;7.88;84.98;100806.69;5028221;28;20479;-58
2022/04/04 11:14:26;;;;;;;10.45;2.28;;;;;;;7.88;84.87;100788.34;5028308;28;20158;-60
2022/04/04 11:17:06;;;;;;;11.00;2.55;;;;;;;8.12;84.63;100783.44;5030010;28;20069;-61
2022/04/04 11:19:57;;;;;;;6.82;2.25;;;;;;;8.11;84.58;100776.44;5030212;28;20027;-61
2022/04/04 11:22:31;;;;;;;8.43;2.70;;;;;;;8.06;84.80;100784.41;5029896;28;20030;-56
2022/04/04 11:25:26;;;;;;;8.00;2.40;;;;;;;8.08;84.70;100772.13;5028239;28;20029;-58
2022/04/04 11:27:52;;;;;;;10.38;2.35;;;;;;;8.12;84.61;100765.91;5029212;28;20125;-57
2022/04/04 11:30:20;;;;;;;4.57;1.80;;;;;;;8.36;84.11;100776.69;5030024;28;20025;-58